sensor_id;sensor_type;location;lat;lon;timestamp;pressure;altitude;pressure_sealevel;temperature;humidity
15750;BME280;7976;52.526;13.326;2024-01-30T00:00:06;102482.47;;;6.17;68.73
15750;BME280;7976;52.526;13.326;2024-01-30T00:02:34;102484.19;;;6.15;68.76
15750;BME280;7976;52.526;13.326;2024-01-30T00:05:02;102474.63;;;6.13;68.52
15750;BME280;7976;52.526;13.326;2024-01-30T00:07:30;102474.63;;;6.13;68.59
15750;BME280;7976;52.526;13.326;2024-01-30T00:09:57;102472.03;;;6.13;68.81
15750;BME280;7976;52.526;13.326;2024-01-30T00:12:24;102481.59;;;6.14;68.61
15750;BME280;7976;52.526;13.326;2024-01-30T00:14:52;102477.22;;;6.13;68.78
15750;BME280;7976;52.526;13.326;2024-01-30T00:17:19;102481.56;;;6.11;68.92
15750;BME280;7976;52.526;13.326;2024-01-30T00:19:47;102481.56;;;6.12;68.71
15750;BME280;7976;52.526;13.326;2024-01-30T00:22:14;102486.75;;;6.11;69.04
15750;BME280;7976;52.526;13.326;2024-01-30T00:24:41;102476.34;;;6.11;69.01
15750;BME280;7976;52.526;13.326;2024-01-30T00:27:08;102478.94;;;6.09;68.71
15750;BME280;7976;52.526;13.326;2024-01-30T00:29:35;102474.59;;;6.08;68.92
15750;BME280;7976;52.526;13.326;2024-01-30T00:32:02;102481.50;;;6.08;68.70
15750;BME280;7976;52.526;13.326;2024-01-30T00:34:29;102478.03;;;6.06;68.91
15750;BME280;7976;52.526;13.326;2024-01-30T00:36:57;102474.53;;;6.01;68.87
15750;BME280;7976;52.526;13.326;2024-01-30T00:39:24;102481.44;;;6.00;69.05
15750;BME280;7976;52.526;13.326;2024-01-30T00:41:51;102472.78;;;6.00;69.24
15750;BME280;7976;52.526;13.326;2024-01-30T00:44:20;102473.63;;;5.99;69.18
15750;BME280;7976;52.526;13.326;2024-01-30T00:46:46;102471.03;;;5.96;69.18
15750;BME280;7976;52.526;13.326;2024-01-30T00:49:13;102472.75;;;5.97;69.02
15750;BME280;7976;52.526;13.326;2024-01-30T00:51:40;102467.53;;;5.94;68.97
15750;BME280;7976;52.526;13.326;2024-01-30T00:54:08;102466.66;;;5.93;69.11
15750;BME280;7976;52.526;13.326;2024-01-30T00:56:35;102462.31;;;5.91;69.09
15750;BME280;7976;52.526;13.326;2024-01-30T00:59:02;102475.28;;;5.89;69.16
15750;BME280;7976;52.526;13.326;2024-01-30T01:01:29;102467.44;;;5.88;69.21
15750;BME280;7976;52.526;13.326;2024-01-30T01:03:56;102473.47;;;5.82;69.42
15750;BME280;7976;52.526;13.326;2024-01-30T01:06:23;102463.88;;;5.80;69.60
15750;BME280;7976;52.526;13.326;2024-01-30T01:08:50;102469.03;;;5.77;69.60
15750;BME280;7976;52.526;13.326;2024-01-30T01:11:18;102466.41;;;5.74;69.79
15750;BME280;7976;52.526;13.326;2024-01-30T01:13:45;102472.44;;;5.71;69.84
15750;BME280;7976;52.526;13.326;2024-01-30T01:16:12;102470.72;;;5.72;70.08
15750;BME280;7976;52.526;13.326;2024-01-30T01:18:39;102475.91;;;5.72;69.93
15750;BME280;7976;52.526;13.326;2024-01-30T01:21:06;102478.50;;;5.69;69.98
15750;BME280;7976;52.526;13.326;2024-01-30T01:23:32;102481.88;;;5.65;70.11
15750;BME280;7976;52.526;13.326;2024-01-30T01:25:59;102481.00;;;5.63;70.07
15750;BME280;7976;52.526;13.326;2024-01-30T01:28:28;102476.66;;;5.60;70.50
15750;BME280;7976;52.526;13.326;2024-01-30T01:30:55;102469.69;;;5.56;70.47
15750;BME280;7976;52.526;13.326;2024-01-30T01:33:24;102477.44;;;5.55;70.48
15750;BME280;7976;52.526;13.326;2024-01-30T01:35:51;102475.72;;;5.54;70.53
15750;BME280;7976;52.526;13.326;2024-01-30T01:38:19;102473.97;;;5.53;70.51
15750;BME280;7976;52.526;13.326;2024-01-30T01:40:44;102467.03;;;5.52;70.73
15750;BME280;7976;52.526;13.326;2024-01-30T01:43:11;102468.75;;;5.53;70.68
15750;BME280;7976;52.526;13.326;2024-01-30T01:45:39;102467.06;;;5.53;70.64
15750;BME280;7976;52.526;13.326;2024-01-30T01:48:07;102459.25;;;5.53;70.36
15750;BME280;7976;52.526;13.326;2024-01-30T01:50:36;102466.22;;;5.54;70.75
15750;BME280;7976;52.526;13.326;2024-01-30T01:53:05;102468.75;;;5.53;70.67
15750;BME280;7976;52.526;13.326;2024-01-30T01:55:35;102460.13;;;5.51;70.70
15750;BME280;7976;52.526;13.326;2024-01-30T01:58:02;102468.75;;;5.50;70.61
15750;BME280;7976;52.526;13.326;2024-01-30T02:00:30;102465.25;;;5.48;70.71
15750;BME280;7976;52.526;13.326;2024-01-30T02:02:59;102467.88;;;5.49;70.64
15750;BME280;7976;52.526;13.326;2024-01-30T02:05:27;102469.59;;;5.49;70.75
15750;BME280;7976;52.526;13.326;2024-01-30T02:07:54;102461.78;;;5.46;70.68
15750;BME280;7976;52.526;13.326;2024-01-30T02:10:22;102468.66;;;5.42;71.10
15750;BME280;7976;52.526;13.326;2024-01-30T02:12:49;102470.34;;;5.39;71.04
15750;BME280;7976;52.526;13.326;2024-01-30T02:19:23;102465.16;;;5.40;71.24
15750;BME280;7976;52.526;13.326;2024-01-30T02:21:53;102466.91;;;5.43;71.11
15750;BME280;7976;52.526;13.326;2024-01-30T02:24:20;102465.19;;;5.43;70.98
15750;BME280;7976;52.526;13.326;2024-01-30T02:26:47;102474.69;;;5.43;71.20
15750;BME280;7976;52.526;13.326;2024-01-30T02:29:13;102466.91;;;5.41;71.00
15750;BME280;7976;52.526;13.326;2024-01-30T02:31:40;102473.84;;;5.41;70.99
15750;BME280;7976;52.526;13.326;2024-01-30T02:34:07;102465.16;;;5.39;71.18
15750;BME280;7976;52.526;13.326;2024-01-30T02:36:34;102466.88;;;5.40;71.20
15750;BME280;7976;52.526;13.326;2024-01-30T02:39:03;102470.38;;;5.42;71.49
15750;BME280;7976;52.526;13.326;2024-01-30T02:41:30;102466.91;;;5.43;71.20
15750;BME280;7976;52.526;13.326;2024-01-30T02:43:57;102460.88;;;5.44;71.45
15750;BME280;7976;52.526;13.326;2024-01-30T02:46:24;102465.22;;;5.45;71.47
15750;BME280;7976;52.526;13.326;2024-01-30T02:48:51;102453.09;;;5.44;71.32
15750;BME280;7976;52.526;13.326;2024-01-30T02:51:18;102453.09;;;5.44;71.48
15750;BME280;7976;52.526;13.326;2024-01-30T02:53:45;102456.59;;;5.44;71.54
15750;BME280;7976;52.526;13.326;2024-01-30T02:56:14;102453.97;;;5.44;71.55
15750;BME280;7976;52.526;13.326;2024-01-30T02:58:41;102452.22;;;5.43;71.61
15750;BME280;7976;52.526;13.326;2024-01-30T03:01:08;102448.78;;;5.44;71.47
15750;BME280;7976;52.526;13.326;2024-01-30T03:03:35;102452.25;;;5.45;71.69
15750;BME280;7976;52.526;13.326;2024-01-30T03:06:02;102454.00;;;5.46;71.81
15750;BME280;7976;52.526;13.326;2024-01-30T03:08:29;102449.66;;;5.48;71.62
15750;BME280;7976;52.526;13.326;2024-01-30T03:10:56;102448.84;;;5.49;71.58
15750;BME280;7976;52.526;13.326;2024-01-30T03:13:24;102446.22;;;5.47;71.74
15750;BME280;7976;52.526;13.326;2024-01-30T03:15:51;102445.34;;;5.47;71.83
15750;BME280;7976;52.526;13.326;2024-01-30T03:18:18;102441.88;;;5.46;71.80
15750;BME280;7976;52.526;13.326;2024-01-30T03:20:45;102439.25;;;5.45;71.66
15750;BME280;7976;52.526;13.326;2024-01-30T03:23:12;102441.00;;;5.44;71.95
15750;BME280;7976;52.526;13.326;2024-01-30T03:25:38;102439.25;;;5.45;71.79
15750;BME280;7976;52.526;13.326;2024-01-30T03:28:06;102438.41;;;5.44;72.21
15750;BME280;7976;52.526;13.326;2024-01-30T03:30:34;102440.13;;;5.45;72.12
15750;BME280;7976;52.526;13.326;2024-01-30T03:33:01;102433.22;;;5.46;72.06
15750;BME280;7976;52.526;13.326;2024-01-30T03:35:28;102439.28;;;5.48;72.04
15750;BME280;7976;52.526;13.326;2024-01-30T03:37:55;102437.56;;;5.47;72.28
15750;BME280;7976;52.526;13.326;2024-01-30T03:40:22;102435.81;;;5.44;72.37
15750;BME280;7976;52.526;13.326;2024-01-30T03:42:49;102432.31;;;5.41;72.42
15750;BME280;7976;52.526;13.326;2024-01-30T03:45:15;102438.31;;;5.38;72.61
15750;BME280;7976;52.526;13.326;2024-01-30T03:47:46;102433.97;;;5.36;72.59
15750;BME280;7976;52.526;13.326;2024-01-30T03:50:13;102431.31;;;5.31;72.56
15750;BME280;7976;52.526;13.326;2024-01-30T03:52:40;102431.28;;;5.27;72.76
15750;BME280;7976;52.526;13.326;2024-01-30T03:55:08;102432.13;;;5.26;72.94
15750;BME280;7976;52.526;13.326;2024-01-30T03:57:35;102426.88;;;5.21;72.95
15750;BME280;7976;52.526;13.326;2024-01-30T04:00:01;102432.94;;;5.23;72.97
15750;BME280;7976;52.526;13.326;2024-01-30T04:02:38;102434.66;;;5.21;72.95
15750;BME280;7976;52.526;13.326;2024-01-30T04:05:07;102419.06;;;5.18;73.19
15750;BME280;7976;52.526;13.326;2024-01-30T04:07:34;102430.31;;;5.20;73.08
15750;BME280;7976;52.526;13.326;2024-01-30T04:10:01;102426.84;;;5.20;73.21
15750;BME280;7976;52.526;13.326;2024-01-30T04:12:29;102432.00;;;5.17;73.33
15750;BME280;7976;52.526;13.326;2024-01-30T04:14:56;102431.13;;;5.16;73.54
15750;BME280;7976;52.526;13.326;2024-01-30T04:17:23;102437.19;;;5.17;73.54
15750;BME280;7976;52.526;13.326;2024-01-30T04:19:50;102437.22;;;5.20;73.65
15750;BME280;7976;52.526;13.326;2024-01-30T04:22:18;102440.69;;;5.19;73.44
15750;BME280;7976;52.526;13.326;2024-01-30T04:24:45;102440.69;;;5.19;73.49
15750;BME280;7976;52.526;13.326;2024-01-30T04:27:12;102432.00;;;5.17;73.62
15750;BME280;7976;52.526;13.326;2024-01-30T04:29:38;102433.78;;;5.19;73.62
15750;BME280;7976;52.526;13.326;2024-01-30T04:32:06;102432.00;;;5.15;73.86
15750;BME280;7976;52.526;13.326;2024-01-30T04:34:33;102431.97;;;5.13;73.59
15750;BME280;7976;52.526;13.326;2024-01-30T04:37:00;102422.44;;;5.12;73.84
15750;BME280;7976;52.526;13.326;2024-01-30T04:39:28;102424.19;;;5.12;74.11
15750;BME280;7976;52.526;13.326;2024-01-30T04:41:55;102418.97;;;5.10;73.96
15750;BME280;7976;52.526;13.326;2024-01-30T04:44:22;102431.09;;;5.11;73.89
15750;BME280;7976;52.526;13.326;2024-01-30T04:46:49;102424.19;;;5.12;73.99
15750;BME280;7976;52.526;13.326;2024-01-30T04:49:15;102424.19;;;5.12;74.00
15750;BME280;7976;52.526;13.326;2024-01-30T04:51:42;102425.03;;;5.12;73.81
15750;BME280;7976;52.526;13.326;2024-01-30T04:54:09;102422.44;;;5.12;73.96
15750;BME280;7976;52.526;13.326;2024-01-30T04:56:37;102425.03;;;5.12;73.93
15750;BME280;7976;52.526;13.326;2024-01-30T04:59:05;102424.22;;;5.15;74.04
15750;BME280;7976;52.526;13.326;2024-01-30T05:01:34;102423.38;;;5.18;73.99
15750;BME280;7976;52.526;13.326;2024-01-30T05:04:01;102418.25;;;5.21;73.98
15750;BME280;7976;52.526;13.326;2024-01-30T05:06:29;102416.47;;;5.20;74.01
15750;BME280;7976;52.526;13.326;2024-01-30T05:08:56;102412.16;;;5.19;73.90
15750;BME280;7976;52.526;13.326;2024-01-30T05:11:23;102419.94;;;5.19;73.76
15750;BME280;7976;52.526;13.326;2024-01-30T05:13:51;102424.25;;;5.20;73.87
15750;BME280;7976;52.526;13.326;2024-01-30T05:16:18;102422.50;;;5.16;73.98
15750;BME280;7976;52.526;13.326;2024-01-30T05:18:45;102425.91;;;5.13;74.03
15750;BME280;7976;52.526;13.326;2024-01-30T05:21:12;102420.72;;;5.11;74.19
15750;BME280;7976;52.526;13.326;2024-01-30T05:23:39;102427.59;;;5.09;74.37
15750;BME280;7976;52.526;13.326;2024-01-30T05:26:07;102418.91;;;5.07;74.26
15750;BME280;7976;52.526;13.326;2024-01-30T05:28:34;102420.59;;;5.04;74.25
15750;BME280;7976;52.526;13.326;2024-01-30T05:31:03;102412.78;;;4.99;74.34
15750;BME280;7976;52.526;13.326;2024-01-30T05:33:30;102424.84;;;4.99;74.56
15750;BME280;7976;52.526;13.326;2024-01-30T05:35:57;102421.41;;;4.97;74.64
15750;BME280;7976;52.526;13.326;2024-01-30T05:38:25;102416.19;;;4.95;74.59
15750;BME280;7976;52.526;13.326;2024-01-30T05:40:52;102410.97;;;4.94;74.63
15750;BME280;7976;52.526;13.326;2024-01-30T05:43:19;102409.25;;;4.94;74.51
15750;BME280;7976;52.526;13.326;2024-01-30T05:45:45;102416.19;;;4.95;74.68
15750;BME280;7976;52.526;13.326;2024-01-30T05:48:13;102413.56;;;4.94;74.67
15750;BME280;7976;52.526;13.326;2024-01-30T05:50:40;102412.72;;;4.95;74.80
15750;BME280;7976;52.526;13.326;2024-01-30T05:53:07;102409.25;;;4.96;74.88
15750;BME280;7976;52.526;13.326;2024-01-30T05:55:34;102400.66;;;4.98;74.59
15750;BME280;7976;52.526;13.326;2024-01-30T05:58:02;102411.88;;;4.99;74.60
15750;BME280;7976;52.526;13.326;2024-01-30T06:00:29;102411.03;;;4.98;74.43
15750;BME280;7976;52.526;13.326;2024-01-30T06:02:56;102399.78;;;4.98;74.67
15750;BME280;7976;52.526;13.326;2024-01-30T06:05:25;102402.38;;;4.96;74.51
15750;BME280;7976;52.526;13.326;2024-01-30T06:07:52;102405.81;;;4.95;74.48
15750;BME280;7976;52.526;13.326;2024-01-30T06:10:19;102405.81;;;4.95;74.59
15750;BME280;7976;52.526;13.326;2024-01-30T06:12:46;102406.66;;;4.94;74.50
15750;BME280;7976;52.526;13.326;2024-01-30T06:15:14;102402.34;;;4.93;74.67
15750;BME280;7976;52.526;13.326;2024-01-30T06:17:40;102404.03;;;4.93;74.68
15750;BME280;7976;52.526;13.326;2024-01-30T06:20:07;102405.81;;;4.95;74.62
15750;BME280;7976;52.526;13.326;2024-01-30T06:22:36;102402.38;;;4.96;74.71
15750;BME280;7976;52.526;13.326;2024-01-30T06:25:04;102402.38;;;4.96;74.99
15750;BME280;7976;52.526;13.326;2024-01-30T06:27:31;102395.44;;;4.95;74.41
15750;BME280;7976;52.526;13.326;2024-01-30T06:29:58;102407.50;;;4.93;74.49
15750;BME280;7976;52.526;13.326;2024-01-30T06:32:25;102409.22;;;4.91;74.64
15750;BME280;7976;52.526;13.326;2024-01-30T06:34:53;102405.78;;;4.94;74.66
15750;BME280;7976;52.526;13.326;2024-01-30T06:37:20;102415.31;;;4.95;74.42
15750;BME280;7976;52.526;13.326;2024-01-30T06:39:48;102402.34;;;4.93;74.49
15750;BME280;7976;52.526;13.326;2024-01-30T06:42:15;102406.66;;;4.96;74.33
15750;BME280;7976;52.526;13.326;2024-01-30T06:44:42;102404.97;;;4.98;74.66
15750;BME280;7976;52.526;13.326;2024-01-30T06:47:10;102397.22;;;5.01;74.43
15750;BME280;7976;52.526;13.326;2024-01-30T06:49:37;102402.41;;;5.02;74.13
15750;BME280;7976;52.526;13.326;2024-01-30T06:52:05;102398.97;;;5.02;74.05
15750;BME280;7976;52.526;13.326;2024-01-30T06:54:33;102398.09;;;5.01;74.27
15750;BME280;7976;52.526;13.326;2024-01-30T06:57:01;102398.09;;;5.00;74.28
15750;BME280;7976;52.526;13.326;2024-01-30T06:59:28;102398.97;;;5.00;74.08
15750;BME280;7976;52.526;13.326;2024-01-30T07:01:55;102404.16;;;5.00;74.17
15750;BME280;7976;52.526;13.326;2024-01-30T07:04:23;102395.50;;;5.01;74.11
15750;BME280;7976;52.526;13.326;2024-01-30T07:06:50;102403.31;;;5.03;74.12
15750;BME280;7976;52.526;13.326;2024-01-30T07:09:19;102403.34;;;5.06;74.21
15750;BME280;7976;52.526;13.326;2024-01-30T07:11:45;102405.09;;;5.07;73.89
15750;BME280;7976;52.526;13.326;2024-01-30T07:14:14;102410.31;;;5.08;74.14
15750;BME280;7976;52.526;13.326;2024-01-30T07:16:41;102406.00;;;5.10;74.10
15750;BME280;7976;52.526;13.326;2024-01-30T07:19:09;102398.25;;;5.13;74.13
15750;BME280;7976;52.526;13.326;2024-01-30T07:21:36;102405.19;;;5.18;73.90
15750;BME280;7976;52.526;13.326;2024-01-30T07:24:06;102394.00;;;5.20;74.00
15750;BME280;7976;52.526;13.326;2024-01-30T07:26:33;102402.69;;;5.22;73.90
15750;BME280;7976;52.526;13.326;2024-01-30T07:29:01;102395.81;;;5.26;73.72
15750;BME280;7976;52.526;13.326;2024-01-30T07:31:30;102397.56;;;5.28;73.76
15750;BME280;7976;52.526;13.326;2024-01-30T07:33:58;102388.94;;;5.31;74.00
15750;BME280;7976;52.526;13.326;2024-01-30T07:36:25;102390.69;;;5.32;73.84
15750;BME280;7976;52.526;13.326;2024-01-30T07:38:53;102394.19;;;5.37;73.61
15750;BME280;7976;52.526;13.326;2024-01-30T07:41:20;102389.03;;;5.40;73.51
15750;BME280;7976;52.526;13.326;2024-01-30T07:43:47;102394.25;;;5.43;73.53
15750;BME280;7976;52.526;13.326;2024-01-30T07:46:16;102393.44;;;5.47;73.35
15750;BME280;7976;52.526;13.326;2024-01-30T07:48:45;102388.25;;;5.48;73.36
15750;BME280;7976;52.526;13.326;2024-01-30T07:51:12;102384.84;;;5.51;73.08
15750;BME280;7976;52.526;13.326;2024-01-30T07:53:38;102391.75;;;5.52;72.94
15750;BME280;7976;52.526;13.326;2024-01-30T07:56:06;102390.03;;;5.52;72.94
15750;BME280;7976;52.526;13.326;2024-01-30T07:58:33;102390.06;;;5.54;72.71
15750;BME280;7976;52.526;13.326;2024-01-30T08:01:01;102386.56;;;5.53;72.81
15750;BME280;7976;52.526;13.326;2024-01-30T08:03:28;102376.22;;;5.55;72.61
15750;BME280;7976;52.526;13.326;2024-01-30T08:05:57;102390.94;;;5.56;72.58
15750;BME280;7976;52.526;13.326;2024-01-30T08:08:24;102389.22;;;5.58;72.41
15750;BME280;7976;52.526;13.326;2024-01-30T08:10:52;102394.41;;;5.58;72.37
15750;BME280;7976;52.526;13.326;2024-01-30T08:13:19;102394.47;;;5.61;72.55
15750;BME280;7976;52.526;13.326;2024-01-30T08:15:46;102391.88;;;5.64;72.24
15750;BME280;7976;52.526;13.326;2024-01-30T08:18:12;102391.03;;;5.66;72.29
15750;BME280;7976;52.526;13.326;2024-01-30T08:20:39;102388.50;;;5.71;72.33
15750;BME280;7976;52.526;13.326;2024-01-30T08:23:08;102385.03;;;5.73;72.10
15750;BME280;7976;52.526;13.326;2024-01-30T08:25:36;102376.44;;;5.79;72.21
15750;BME280;7976;52.526;13.326;2024-01-30T08:28:04;102379.06;;;5.82;72.02
15750;BME280;7976;52.526;13.326;2024-01-30T08:30:31;102382.59;;;5.87;71.88
15750;BME280;7976;52.526;13.326;2024-01-30T08:32:58;102374.00;;;5.91;72.20
15750;BME280;7976;52.526;13.326;2024-01-30T08:35:25;102374.00;;;5.94;71.90
15750;BME280;7976;52.526;13.326;2024-01-30T08:37:52;102374.91;;;5.96;71.78
15750;BME280;7976;52.526;13.326;2024-01-30T08:40:21;102368.03;;;6.01;71.64
15750;BME280;7976;52.526;13.326;2024-01-30T08:42:48;102368.91;;;6.04;71.38
15750;BME280;7976;52.526;13.326;2024-01-30T08:45:15;102366.34;;;6.09;71.46
15750;BME280;7976;52.526;13.326;2024-01-30T08:47:42;102375.94;;;6.16;71.22
15750;BME280;7976;52.526;13.326;2024-01-30T08:50:09;102369.03;;;6.22;71.02
15750;BME280;7976;52.526;13.326;2024-01-30T08:52:36;102369.06;;;6.30;70.84
15750;BME280;7976;52.526;13.326;2024-01-30T08:55:03;102371.75;;;6.36;70.76
15750;BME280;7976;52.526;13.326;2024-01-30T08:57:32;102369.19;;;6.45;70.57
15750;BME280;7976;52.526;13.326;2024-01-30T08:59:59;102375.28;;;6.52;70.52
15750;BME280;7976;52.526;13.326;2024-01-30T09:02:27;102377.06;;;6.60;70.23
15750;BME280;7976;52.526;13.326;2024-01-30T09:04:54;102374.50;;;6.66;70.11
15750;BME280;7976;52.526;13.326;2024-01-30T09:07:21;102371.94;;;6.74;70.08
15750;BME280;7976;52.526;13.326;2024-01-30T09:09:48;102367.63;;;6.77;69.90
15750;BME280;7976;52.526;13.326;2024-01-30T09:12:15;102368.53;;;6.84;70.07
15750;BME280;7976;52.526;13.326;2024-01-30T09:14:43;102362.47;;;6.89;69.55
15750;BME280;7976;52.526;13.326;2024-01-30T09:17:10;102359.88;;;6.94;69.78
15750;BME280;7976;52.526;13.326;2024-01-30T09:19:37;102369.47;;;6.99;69.63
15750;BME280;7976;52.526;13.326;2024-01-30T09:22:04;102370.34;;;7.03;69.55
15750;BME280;7976;52.526;13.326;2024-01-30T09:24:32;102373.78;;;7.03;69.29
15750;BME280;7976;52.526;13.326;2024-01-30T09:26:59;102367.75;;;7.04;69.03
15750;BME280;7976;52.526;13.326;2024-01-30T09:29:27;102375.56;;;7.07;68.95
15750;BME280;7976;52.526;13.326;2024-01-30T09:31:55;102360.81;;;7.06;68.66
15750;BME280;7976;52.526;13.326;2024-01-30T09:34:22;102366.03;;;7.09;68.44
15750;BME280;7976;52.526;13.326;2024-01-30T09:36:49;102356.50;;;7.13;68.70
15750;BME280;7976;52.526;13.326;2024-01-30T09:39:16;102362.56;;;7.13;68.47
15750;BME280;7976;52.526;13.326;2024-01-30T09:41:49;102366.91;;;7.17;68.18
15750;BME280;7976;52.526;13.326;2024-01-30T09:44:20;102367.78;;;7.21;68.29
15750;BME280;7976;52.526;13.326;2024-01-30T09:46:47;102358.25;;;7.24;68.17
15750;BME280;7976;52.526;13.326;2024-01-30T09:49:17;102360.88;;;7.30;68.08
15750;BME280;7976;52.526;13.326;2024-01-30T09:51:45;102360.03;;;7.36;67.68
15750;BME280;7976;52.526;13.326;2024-01-30T09:54:14;102355.69;;;7.39;67.63
15750;BME280;7976;52.526;13.326;2024-01-30T09:56:41;102356.56;;;7.43;67.49
15750;BME280;7976;52.526;13.326;2024-01-30T09:59:08;102354.84;;;7.49;67.18
15750;BME280;7976;52.526;13.326;2024-01-30T10:01:36;102348.78;;;7.56;66.69
15750;BME280;7976;52.526;13.326;2024-01-30T10:04:04;102342.69;;;7.63;66.63
15750;BME280;7976;52.526;13.326;2024-01-30T10:06:33;102353.97;;;7.68;66.73
15750;BME280;7976;52.526;13.326;2024-01-30T10:09:00;102337.50;;;7.73;66.57
15750;BME280;7976;52.526;13.326;2024-01-30T10:11:27;102347.06;;;7.74;66.16
15750;BME280;7976;52.526;13.326;2024-01-30T10:13:54;102348.78;;;7.76;65.88
15750;BME280;7976;52.526;13.326;2024-01-30T10:16:21;102346.19;;;7.79;65.74
15750;BME280;7976;52.526;13.326;2024-01-30T10:18:48;102340.13;;;7.83;65.51
15750;BME280;7976;52.526;13.326;2024-01-30T10:21:15;102333.19;;;7.84;65.43
15750;BME280;7976;52.526;13.326;2024-01-30T10:23:43;102341.84;;;7.86;65.33
15750;BME280;7976;52.526;13.326;2024-01-30T10:26:11;102341.84;;;7.86;65.08
15750;BME280;7976;52.526;13.326;2024-01-30T10:28:38;102334.91;;;7.85;64.67
15750;BME280;7976;52.526;13.326;2024-01-30T10:31:05;102337.50;;;7.85;64.50
15750;BME280;7976;52.526;13.326;2024-01-30T10:33:32;102342.72;;;7.89;64.52
15750;BME280;7976;52.526;13.326;2024-01-30T10:36:02;102338.38;;;7.93;64.63
15750;BME280;7976;52.526;13.326;2024-01-30T10:38:32;102338.38;;;7.93;64.19
15750;BME280;7976;52.526;13.326;2024-01-30T10:41:01;102338.38;;;7.90;64.10
15750;BME280;7976;52.526;13.326;2024-01-30T10:43:33;102327.97;;;7.87;63.89
15750;BME280;7976;52.526;13.326;2024-01-30T10:46:10;102327.06;;;7.88;63.64
15750;BME280;7976;52.526;13.326;2024-01-30T10:48:43;102338.38;;;7.90;63.57
15750;BME280;7976;52.526;13.326;2024-01-30T10:51:11;102336.66;;;7.92;63.35
15750;BME280;7976;52.526;13.326;2024-01-30T10:53:41;102337.50;;;7.97;63.22
15750;BME280;7976;52.526;13.326;2024-01-30T10:56:11;102339.22;;;7.98;63.32
15750;BME280;7976;52.526;13.326;2024-01-30T10:58:38;102331.41;;;8.01;63.26
15750;BME280;7976;52.526;13.326;2024-01-30T11:01:07;102323.59;;;8.04;63.07
15750;BME280;7976;52.526;13.326;2024-01-30T11:03:35;102333.16;;;8.05;63.01
15750;BME280;7976;52.526;13.326;2024-01-30T11:06:03;102334.88;;;8.06;62.83
15750;BME280;7976;52.526;13.326;2024-01-30T11:08:32;102327.94;;;8.09;62.63
15750;BME280;7976;52.526;13.326;2024-01-30T11:11:00;102334.00;;;8.11;62.46
15750;BME280;7976;52.526;13.326;2024-01-30T11:13:29;102322.72;;;8.14;62.34
15750;BME280;7976;52.526;13.326;2024-01-30T11:16:00;102322.72;;;8.17;62.36
15750;BME280;7976;52.526;13.326;2024-01-30T11:18:30;102326.19;;;8.22;62.51
15750;BME280;7976;52.526;13.326;2024-01-30T11:20:58;102324.47;;;8.27;62.43
15750;BME280;7976;52.526;13.326;2024-01-30T11:23:27;102322.72;;;8.32;62.20
15750;BME280;7976;52.526;13.326;2024-01-30T11:25:55;102323.59;;;8.35;62.15
15750;BME280;7976;52.526;13.326;2024-01-30T11:28:23;102319.22;;;8.40;62.09
15750;BME280;7976;52.526;13.326;2024-01-30T11:31:02;102323.53;;;8.47;61.92
15750;BME280;7976;52.526;13.326;2024-01-30T11:33:30;102320.94;;;8.52;61.91
15750;BME280;7976;52.526;13.326;2024-01-30T11:35:59;102323.53;;;8.55;61.63
15750;BME280;7976;52.526;13.326;2024-01-30T11:38:27;102318.28;;;8.59;61.43
15750;BME280;7976;52.526;13.326;2024-01-30T11:40:55;102319.13;;;8.66;61.48
15750;BME280;7976;52.526;13.326;2024-01-30T11:43:23;102319.97;;;8.71;61.28
15750;BME280;7976;52.526;13.326;2024-01-30T11:45:52;102313.00;;;8.76;61.21
15750;BME280;7976;52.526;13.326;2024-01-30T11:48:19;102314.72;;;8.78;61.12
15750;BME280;7976;52.526;13.326;2024-01-30T11:50:46;102312.97;;;8.82;61.24
15750;BME280;7976;52.526;13.326;2024-01-30T11:53:13;102313.81;;;8.87;61.04
15750;BME280;7976;52.526;13.326;2024-01-30T11:55:40;102307.72;;;8.89;60.82
15750;BME280;7976;52.526;13.326;2024-01-30T11:58:07;102307.72;;;8.94;60.82
15750;BME280;7976;52.526;13.326;2024-01-30T12:00:34;102306.78;;;9.00;60.78
15750;BME280;7976;52.526;13.326;2024-01-30T12:03:03;102310.22;;;9.06;60.71
15750;BME280;7976;52.526;13.326;2024-01-30T12:05:32;102306.75;;;9.10;60.57
15750;BME280;7976;52.526;13.326;2024-01-30T12:07:59;102285.84;;;9.12;60.41
15750;BME280;7976;52.526;13.326;2024-01-30T12:10:26;102293.66;;;9.12;60.44
15750;BME280;7976;52.526;13.326;2024-01-30T12:12:54;102286.72;;;9.12;60.48
15750;BME280;7976;52.526;13.326;2024-01-30T12:15:22;102284.09;;;9.14;60.32
15750;BME280;7976;52.526;13.326;2024-01-30T12:17:49;102281.50;;;9.12;60.43
15750;BME280;7976;52.526;13.326;2024-01-30T12:20:19;102275.41;;;9.10;60.51
15750;BME280;7976;52.526;13.326;2024-01-30T12:22:48;102269.31;;;9.08;60.38
15750;BME280;7976;52.526;13.326;2024-01-30T12:25:17;102260.63;;;9.09;60.51
15750;BME280;7976;52.526;13.326;2024-01-30T12:27:46;102258.00;;;9.09;60.36
15750;BME280;7976;52.526;13.326;2024-01-30T12:30:16;102254.53;;;9.07;60.38
15750;BME280;7976;52.526;13.326;2024-01-30T12:32:45;102255.38;;;9.08;60.77
15750;BME280;7976;52.526;13.326;2024-01-30T12:35:14;102255.41;;;9.03;60.68
15750;BME280;7976;52.526;13.326;2024-01-30T12:37:44;102247.59;;;9.03;60.90
15750;BME280;7976;52.526;13.326;2024-01-30T12:40:13;102246.72;;;9.01;60.80
15750;BME280;7976;52.526;13.326;2024-01-30T12:42:40;102238.91;;;9.00;61.07
15750;BME280;7976;52.526;13.326;2024-01-30T12:45:09;102238.03;;;9.02;60.99
15750;BME280;7976;52.526;13.326;2024-01-30T12:47:36;102233.69;;;9.04;61.10
15750;BME280;7976;52.526;13.326;2024-01-30T12:50:03;102222.34;;;9.05;60.97
15750;BME280;7976;52.526;13.326;2024-01-30T12:52:30;102224.94;;;9.05;61.33
15750;BME280;7976;52.526;13.326;2024-01-30T12:54:59;102231.91;;;9.06;61.35
15750;BME280;7976;52.526;13.326;2024-01-30T12:57:26;102231.88;;;9.08;61.23
15750;BME280;7976;52.526;13.326;2024-01-30T12:59:52;102231.91;;;9.06;61.57
15750;BME280;7976;52.526;13.326;2024-01-30T13:02:19;102228.44;;;9.06;61.40
15750;BME280;7976;52.526;13.326;2024-01-30T13:04:47;102225.84;;;9.06;61.84